sensor_id;sensor_type;location;lat;lon;timestamp;P1;durP1;ratioP1;P2;durP2;ratioP2
74267;SDS011;62638;51.362;12.472;2022-12-07T00:01:30;8.73;;;5.07;;
74267;SDS011;62638;51.362;12.472;2022-12-07T00:03:59;4.80;;;2.40;;
74267;SDS011;62638;51.362;12.472;2022-12-07T00:06:35;3.40;;;2.30;;
74267;SDS011;62638;51.362;12.472;2022-12-07T00:09:05;9.55;;;2.97;;
74267;SDS011;62638;51.362;12.472;2022-12-07T00:11:32;5.32;;;3.17;;
74267;SDS011;62638;51.362;12.472;2022-12-07T00:14:00;4.18;;;2.50;;
74267;SDS011;62638;51.362;12.472;2022-12-07T00:16:29;7.05;;;4.25;;
74267;SDS011;62638;51.362;12.472;2022-12-07T00:18:56;8.55;;;3.78;;
74267;SDS011;62638;51.362;12.472;2022-12-07T00:21:26;9.32;;;3.22;;
74267;SDS011;62638;51.362;12.472;2022-12-07T00:23:53;8.70;;;4.03;;
74267;SDS011;62638;51.362;12.472;2022-12-07T00:26:23;7.05;;;2.22;;
74267;SDS011;62638;51.362;12.472;2022-12-07T00:28:51;3.60;;;1.90;;
74267;SDS011;62638;51.362;12.472;2022-12-07T00:31:19;7.38;;;2.72;;
74267;SDS011;62638;51.362;12.472;2022-12-07T00:33:47;9.13;;;3.40;;
74267;SDS011;62638;51.362;12.472;2022-12-07T00:36:14;8.38;;;3.40;;
74267;SDS011;62638;51.362;12.472;2022-12-07T00:38:41;6.03;;;3.10;;
74267;SDS011;62638;51.362;12.472;2022-12-07T00:41:11;4.70;;;1.80;;
74267;SDS011;62638;51.362;12.472;2022-12-07T00:43:45;6.80;;;3.92;;
74267;SDS011;62638;51.362;12.472;2022-12-07T00:46:12;7.00;;;2.35;;
74267;SDS011;62638;51.362;12.472;2022-12-07T00:48:38;8.90;;;3.95;;
74267;SDS011;62638;51.362;12.472;2022-12-07T00:51:04;8.13;;;3.47;;
74267;SDS011;62638;51.362;12.472;2022-12-07T00:53:31;6.90;;;3.63;;
74267;SDS011;62638;51.362;12.472;2022-12-07T00:56:04;7.68;;;2.97;;
74267;SDS011;62638;51.362;12.472;2022-12-07T00:58:30;8.07;;;4.47;;
74267;SDS011;62638;51.362;12.472;2022-12-07T01:00:55;9.60;;;3.20;;
74267;SDS011;62638;51.362;12.472;2022-12-07T01:03:25;4.00;;;2.05;;
74267;SDS011;62638;51.362;12.472;2022-12-07T01:05:52;8.55;;;3.22;;
74267;SDS011;62638;51.362;12.472;2022-12-07T01:08:18;6.10;;;2.75;;
74267;SDS011;62638;51.362;12.472;2022-12-07T01:10:44;7.70;;;4.20;;
74267;SDS011;62638;51.362;12.472;2022-12-07T01:13:09;6.78;;;2.95;;
74267;SDS011;62638;51.362;12.472;2022-12-07T01:15:38;7.47;;;1.80;;
74267;SDS011;62638;51.362;12.472;2022-12-07T01:18:05;4.85;;;2.47;;
74267;SDS011;62638;51.362;12.472;2022-12-07T01:20:30;4.53;;;2.50;;
74267;SDS011;62638;51.362;12.472;2022-12-07T01:22:55;8.73;;;3.10;;
74267;SDS011;62638;51.362;12.472;2022-12-07T01:25:21;7.38;;;3.40;;
74267;SDS011;62638;51.362;12.472;2022-12-07T01:27:46;6.20;;;3.00;;
74267;SDS011;62638;51.362;12.472;2022-12-07T01:30:11;7.23;;;4.20;;
74267;SDS011;62638;51.362;12.472;2022-12-07T01:32:37;3.75;;;2.40;;
74267;SDS011;62638;51.362;12.472;2022-12-07T01:35:03;8.18;;;5.15;;
74267;SDS011;62638;51.362;12.472;2022-12-07T01:37:33;9.98;;;4.53;;
74267;SDS011;62638;51.362;12.472;2022-12-07T01:40:02;8.38;;;3.45;;
74267;SDS011;62638;51.362;12.472;2022-12-07T01:42:29;5.95;;;2.78;;
74267;SDS011;62638;51.362;12.472;2022-12-07T01:48:04;4.78;;;2.92;;
74267;SDS011;62638;51.362;12.472;2022-12-07T01:50:31;6.00;;;4.00;;
74267;SDS011;62638;51.362;12.472;2022-12-07T01:52:57;7.25;;;3.97;;
74267;SDS011;62638;51.362;12.472;2022-12-07T01:55:26;10.38;;;3.03;;
74267;SDS011;62638;51.362;12.472;2022-12-07T01:57:52;8.70;;;4.63;;
74267;SDS011;62638;51.362;12.472;2022-12-07T02:00:19;4.40;;;2.03;;
74267;SDS011;62638;51.362;12.472;2022-12-07T02:05:12;3.78;;;2.08;;
74267;SDS011;62638;51.362;12.472;2022-12-07T02:07:38;14.30;;;4.57;;
74267;SDS011;62638;51.362;12.472;2022-12-07T02:10:20;5.90;;;2.20;;
74267;SDS011;62638;51.362;12.472;2022-12-07T02:12:58;6.22;;;3.25;;
74267;SDS011;62638;51.362;12.472;2022-12-07T02:15:37;9.68;;;4.50;;
74267;SDS011;62638;51.362;12.472;2022-12-07T02:18:22;6.45;;;2.50;;
74267;SDS011;62638;51.362;12.472;2022-12-07T02:20:55;9.40;;;3.33;;
74267;SDS011;62638;51.362;12.472;2022-12-07T02:34:50;10.77;;;3.85;;
74267;SDS011;62638;51.362;12.472;2022-12-07T02:43:00;5.85;;;4.30;;
74267;SDS011;62638;51.362;12.472;2022-12-07T02:45:32;2.38;;;2.17;;
74267;SDS011;62638;51.362;12.472;2022-12-07T02:47:59;8.98;;;3.72;;
74267;SDS011;62638;51.362;12.472;2022-12-07T02:50:27;9.40;;;4.88;;
74267;SDS011;62638;51.362;12.472;2022-12-07T02:52:54;10.45;;;4.38;;
74267;SDS011;62638;51.362;12.472;2022-12-07T02:55:21;8.07;;;3.83;;
74267;SDS011;62638;51.362;12.472;2022-12-07T02:58:03;10.63;;;3.25;;
74267;SDS011;62638;51.362;12.472;2022-12-07T03:00:56;7.05;;;3.80;;
74267;SDS011;62638;51.362;12.472;2022-12-07T03:03:40;8.52;;;3.63;;
74267;SDS011;62638;51.362;12.472;2022-12-07T03:06:20;6.57;;;2.28;;
74267;SDS011;62638;51.362;12.472;2022-12-07T03:08:56;8.13;;;3.67;;
74267;SDS011;62638;51.362;12.472;2022-12-07T03:11:50;5.78;;;2.97;;
74267;SDS011;62638;51.362;12.472;2022-12-07T03:14:23;1.33;;;1.23;;
74267;SDS011;62638;51.362;12.472;2022-12-07T03:16:58;4.50;;;2.92;;
74267;SDS011;62638;51.362;12.472;2022-12-07T03:19:26;5.78;;;3.15;;
74267;SDS011;62638;51.362;12.472;2022-12-07T03:22:26;5.13;;;2.40;;
74267;SDS011;62638;51.362;12.472;2022-12-07T03:24:47;2.63;;;1.27;;
74267;SDS011;62638;51.362;12.472;2022-12-07T03:27:20;6.00;;;3.80;;
74267;SDS011;62638;51.362;12.472;2022-12-07T03:29:54;8.23;;;2.97;;
74267;SDS011;62638;51.362;12.472;2022-12-07T03:38:17;6.07;;;2.38;;
74267;SDS011;62638;51.362;12.472;2022-12-07T03:41:02;9.07;;;2.92;;
74267;SDS011;62638;51.362;12.472;2022-12-07T03:43:34;1.90;;;1.00;;
74267;SDS011;62638;51.362;12.472;2022-12-07T03:46:04;4.40;;;2.30;;
74267;SDS011;62638;51.362;12.472;2022-12-07T03:48:41;4.75;;;1.83;;
74267;SDS011;62638;51.362;12.472;2022-12-07T03:51:26;4.90;;;2.75;;
74267;SDS011;62638;51.362;12.472;2022-12-07T03:54:02;3.97;;;1.85;;
74267;SDS011;62638;51.362;12.472;2022-12-07T03:56:35;5.25;;;1.73;;
74267;SDS011;62638;51.362;12.472;2022-12-07T03:59:01;2.78;;;2.10;;
74267;SDS011;62638;51.362;12.472;2022-12-07T04:01:27;5.97;;;2.60;;
74267;SDS011;62638;51.362;12.472;2022-12-07T04:03:52;3.23;;;1.83;;
74267;SDS011;62638;51.362;12.472;2022-12-07T04:06:17;7.43;;;2.85;;
74267;SDS011;62638;51.362;12.472;2022-12-07T04:08:43;3.83;;;2.13;;
74267;SDS011;62638;51.362;12.472;2022-12-07T04:11:08;11.97;;;2.37;;
74267;SDS011;62638;51.362;12.472;2022-12-07T04:13:33;10.53;;;3.80;;
74267;SDS011;62638;51.362;12.472;2022-12-07T04:16:19;4.22;;;2.08;;
74267;SDS011;62638;51.362;12.472;2022-12-07T04:18:45;10.98;;;3.08;;
74267;SDS011;62638;51.362;12.472;2022-12-07T04:21:11;6.60;;;2.38;;
74267;SDS011;62638;51.362;12.472;2022-12-07T04:23:36;3.07;;;2.03;;
74267;SDS011;62638;51.362;12.472;2022-12-07T04:26:01;5.55;;;2.88;;
74267;SDS011;62638;51.362;12.472;2022-12-07T04:28:27;13.85;;;3.55;;
74267;SDS011;62638;51.362;12.472;2022-12-07T04:30:52;3.95;;;1.48;;
74267;SDS011;62638;51.362;12.472;2022-12-07T04:33:17;4.07;;;1.53;;
74267;SDS011;62638;51.362;12.472;2022-12-07T04:35:43;2.17;;;1.80;;
74267;SDS011;62638;51.362;12.472;2022-12-07T04:38:08;7.05;;;2.97;;
74267;SDS011;62638;51.362;12.472;2022-12-07T04:40:34;7.45;;;2.92;;
74267;SDS011;62638;51.362;12.472;2022-12-07T04:42:59;10.27;;;2.95;;
74267;SDS011;62638;51.362;12.472;2022-12-07T04:45:24;8.37;;;3.80;;
74267;SDS011;62638;51.362;12.472;2022-12-07T04:47:50;3.97;;;1.83;;
74267;SDS011;62638;51.362;12.472;2022-12-07T04:50:15;10.32;;;2.55;;
74267;SDS011;62638;51.362;12.472;2022-12-07T04:52:41;2.83;;;1.92;;
74267;SDS011;62638;51.362;12.472;2022-12-07T04:55:06;5.23;;;2.67;;
74267;SDS011;62638;51.362;12.472;2022-12-07T04:57:31;6.88;;;2.78;;
74267;SDS011;62638;51.362;12.472;2022-12-07T04:59:57;4.57;;;2.77;;
74267;SDS011;62638;51.362;12.472;2022-12-07T05:02:22;3.50;;;1.93;;
74267;SDS011;62638;51.362;12.472;2022-12-07T05:04:47;3.95;;;1.92;;
74267;SDS011;62638;51.362;12.472;2022-12-07T05:07:13;3.93;;;2.83;;
74267;SDS011;62638;51.362;12.472;2022-12-07T05:09:38;8.00;;;2.90;;
74267;SDS011;62638;51.362;12.472;2022-12-07T05:12:03;5.07;;;2.95;;
74267;SDS011;62638;51.362;12.472;2022-12-07T05:14:29;3.92;;;2.42;;
74267;SDS011;62638;51.362;12.472;2022-12-07T05:16:54;3.33;;;2.63;;
74267;SDS011;62638;51.362;12.472;2022-12-07T05:19:20;6.50;;;1.70;;
74267;SDS011;62638;51.362;12.472;2022-12-07T05:21:45;5.35;;;4.20;;
74267;SDS011;62638;51.362;12.472;2022-12-07T05:24:12;1.35;;;0.98;;
74267;SDS011;62638;51.362;12.472;2022-12-07T05:26:39;4.32;;;2.78;;
74267;SDS011;62638;51.362;12.472;2022-12-07T05:29:04;3.92;;;2.33;;
74267;SDS011;62638;51.362;12.472;2022-12-07T05:31:30;4.18;;;1.88;;
74267;SDS011;62638;51.362;12.472;2022-12-07T05:33:56;5.15;;;2.15;;
74267;SDS011;62638;51.362;12.472;2022-12-07T05:36:21;7.57;;;2.33;;
74267;SDS011;62638;51.362;12.472;2022-12-07T05:38:47;5.00;;;2.28;;
74267;SDS011;62638;51.362;12.472;2022-12-07T05:41:13;3.15;;;2.33;;
74267;SDS011;62638;51.362;12.472;2022-12-07T05:43:59;5.20;;;2.50;;
74267;SDS011;62638;51.362;12.472;2022-12-07T05:46:24;5.95;;;2.58;;
74267;SDS011;62638;51.362;12.472;2022-12-07T05:48:50;7.35;;;2.17;;
74267;SDS011;62638;51.362;12.472;2022-12-07T05:51:16;5.63;;;3.03;;
74267;SDS011;62638;51.362;12.472;2022-12-07T05:53:41;3.57;;;2.50;;
74267;SDS011;62638;51.362;12.472;2022-12-07T05:56:06;10.00;;;4.10;;
74267;SDS011;62638;51.362;12.472;2022-12-07T05:58:32;6.45;;;3.00;;
74267;SDS011;62638;51.362;12.472;2022-12-07T06:01:15;3.58;;;2.08;;
74267;SDS011;62638;51.362;12.472;2022-12-07T06:03:41;5.13;;;2.27;;
74267;SDS011;62638;51.362;12.472;2022-12-07T06:06:06;8.60;;;2.60;;
74267;SDS011;62638;51.362;12.472;2022-12-07T06:08:31;6.70;;;2.73;;
74267;SDS011;62638;51.362;12.472;2022-12-07T06:10:56;6.05;;;2.53;;
74267;SDS011;62638;51.362;12.472;2022-12-07T06:13:40;6.93;;;3.15;;
74267;SDS011;62638;51.362;12.472;2022-12-07T06:16:06;6.38;;;3.17;;
74267;SDS011;62638;51.362;12.472;2022-12-07T06:18:32;6.07;;;2.92;;
74267;SDS011;62638;51.362;12.472;2022-12-07T06:20:57;7.57;;;3.47;;
74267;SDS011;62638;51.362;12.472;2022-12-07T06:23:23;7.13;;;4.15;;
74267;SDS011;62638;51.362;12.472;2022-12-07T06:25:48;6.67;;;4.00;;
74267;SDS011;62638;51.362;12.472;2022-12-07T06:28:13;8.90;;;4.13;;
74267;SDS011;62638;51.362;12.472;2022-12-07T06:30:39;6.70;;;3.27;;
74267;SDS011;62638;51.362;12.472;2022-12-07T06:33:04;7.32;;;3.83;;
74267;SDS011;62638;51.362;12.472;2022-12-07T06:35:29;6.30;;;3.37;;
74267;SDS011;62638;51.362;12.472;2022-12-07T06:37:57;9.48;;;4.07;;
74267;SDS011;62638;51.362;12.472;2022-12-07T06:40:23;2.35;;;1.48;;
74267;SDS011;62638;51.362;12.472;2022-12-07T06:42:48;5.93;;;3.73;;
74267;SDS011;62638;51.362;12.472;2022-12-07T06:45:13;8.68;;;4.75;;
74267;SDS011;62638;51.362;12.472;2022-12-07T06:47:39;9.75;;;5.35;;
74267;SDS011;62638;51.362;12.472;2022-12-07T06:50:04;7.60;;;3.43;;
74267;SDS011;62638;51.362;12.472;2022-12-07T06:52:31;6.57;;;3.78;;
74267;SDS011;62638;51.362;12.472;2022-12-07T06:54:56;5.65;;;3.20;;
74267;SDS011;62638;51.362;12.472;2022-12-07T06:57:21;6.45;;;2.78;;
74267;SDS011;62638;51.362;12.472;2022-12-07T06:59:47;8.88;;;4.03;;
74267;SDS011;62638;51.362;12.472;2022-12-07T07:02:12;11.47;;;4.17;;
74267;SDS011;62638;51.362;12.472;2022-12-07T07:04:38;5.75;;;3.15;;
74267;SDS011;62638;51.362;12.472;2022-12-07T07:07:03;6.70;;;3.55;;
74267;SDS011;62638;51.362;12.472;2022-12-07T07:09:29;8.27;;;3.22;;
74267;SDS011;62638;51.362;12.472;2022-12-07T07:11:54;9.30;;;5.18;;
74267;SDS011;62638;51.362;12.472;2022-12-07T07:14:19;9.43;;;3.20;;
74267;SDS011;62638;51.362;12.472;2022-12-07T07:16:46;8.63;;;3.95;;
74267;SDS011;62638;51.362;12.472;2022-12-07T07:19:11;4.85;;;1.83;;
74267;SDS011;62638;51.362;12.472;2022-12-07T07:21:36;6.43;;;4.57;;
74267;SDS011;62638;51.362;12.472;2022-12-07T07:24:02;5.40;;;2.95;;
74267;SDS011;62638;51.362;12.472;2022-12-07T07:26:27;7.68;;;2.70;;
74267;SDS011;62638;51.362;12.472;2022-12-07T07:28:52;12.37;;;5.13;;
74267;SDS011;62638;51.362;12.472;2022-12-07T07:31:18;14.15;;;7.38;;
74267;SDS011;62638;51.362;12.472;2022-12-07T07:33:44;6.72;;;2.72;;
74267;SDS011;62638;51.362;12.472;2022-12-07T07:36:11;9.60;;;4.20;;
74267;SDS011;62638;51.362;12.472;2022-12-07T07:38:36;6.93;;;3.30;;
74267;SDS011;62638;51.362;12.472;2022-12-07T07:41:01;8.53;;;4.30;;
74267;SDS011;62638;51.362;12.472;2022-12-07T07:43:27;9.77;;;4.22;;
74267;SDS011;62638;51.362;12.472;2022-12-07T07:45:52;7.47;;;4.00;;
74267;SDS011;62638;51.362;12.472;2022-12-07T07:48:18;11.00;;;4.00;;
74267;SDS011;62638;51.362;12.472;2022-12-07T07:50:43;5.43;;;2.95;;
74267;SDS011;62638;51.362;12.472;2022-12-07T07:53:09;10.35;;;4.13;;
74267;SDS011;62638;51.362;12.472;2022-12-07T07:55:34;9.25;;;3.45;;
74267;SDS011;62638;51.362;12.472;2022-12-07T07:57:59;10.37;;;4.13;;
74267;SDS011;62638;51.362;12.472;2022-12-07T08:00:25;4.70;;;3.00;;
74267;SDS011;62638;51.362;12.472;2022-12-07T08:02:51;7.20;;;3.55;;
74267;SDS011;62638;51.362;12.472;2022-12-07T08:05:16;9.10;;;2.63;;
74267;SDS011;62638;51.362;12.472;2022-12-07T08:07:41;8.98;;;4.10;;
74267;SDS011;62638;51.362;12.472;2022-12-07T08:10:07;8.93;;;4.25;;
74267;SDS011;62638;51.362;12.472;2022-12-07T08:12:36;9.75;;;3.47;;
74267;SDS011;62638;51.362;12.472;2022-12-07T08:15:26;6.20;;;3.50;;
74267;SDS011;62638;51.362;12.472;2022-12-07T08:17:52;10.25;;;4.35;;
74267;SDS011;62638;51.362;12.472;2022-12-07T08:20:18;5.40;;;3.55;;
74267;SDS011;62638;51.362;12.472;2022-12-07T08:22:43;6.80;;;3.63;;
74267;SDS011;62638;51.362;12.472;2022-12-07T08:25:09;7.03;;;3.47;;
74267;SDS011;62638;51.362;12.472;2022-12-07T08:27:34;11.68;;;5.88;;
74267;SDS011;62638;51.362;12.472;2022-12-07T08:29:59;6.05;;;4.47;;
74267;SDS011;62638;51.362;12.472;2022-12-07T08:32:25;8.50;;;5.28;;
74267;SDS011;62638;51.362;12.472;2022-12-07T08:34:51;7.25;;;3.30;;
74267;SDS011;62638;51.362;12.472;2022-12-07T08:37:17;4.78;;;2.75;;
74267;SDS011;62638;51.362;12.472;2022-12-07T08:39:42;6.47;;;3.70;;
74267;SDS011;62638;51.362;12.472;2022-12-07T08:42:07;7.35;;;4.20;;
74267;SDS011;62638;51.362;12.472;2022-12-07T08:44:33;10.60;;;4.45;;
74267;SDS011;62638;51.362;12.472;2022-12-07T08:46:59;9.93;;;3.10;;
74267;SDS011;62638;51.362;12.472;2022-12-07T08:49:28;5.55;;;2.25;;
74267;SDS011;62638;51.362;12.472;2022-12-07T08:51:58;9.75;;;3.67;;
74267;SDS011;62638;51.362;12.472;2022-12-07T08:54:23;8.55;;;2.65;;
74267;SDS011;62638;51.362;12.472;2022-12-07T08:56:49;8.00;;;2.83;;
74267;SDS011;62638;51.362;12.472;2022-12-07T08:59:18;7.05;;;2.22;;
74267;SDS011;62638;51.362;12.472;2022-12-07T09:01:45;6.10;;;3.05;;
74267;SDS011;62638;51.362;12.472;2022-12-07T09:04:11;7.30;;;3.80;;
74267;SDS011;62638;51.362;12.472;2022-12-07T09:06:36;8.95;;;3.20;;
74267;SDS011;62638;51.362;12.472;2022-12-07T09:09:02;5.65;;;2.17;;
74267;SDS011;62638;51.362;12.472;2022-12-07T09:11:28;6.13;;;3.05;;
74267;SDS011;62638;51.362;12.472;2022-12-07T09:13:54;10.25;;;3.58;;
74267;SDS011;62638;51.362;12.472;2022-12-07T09:16:20;4.03;;;2.05;;
74267;SDS011;62638;51.362;12.472;2022-12-07T09:18:46;7.60;;;3.95;;
74267;SDS011;62638;51.362;12.472;2022-12-07T09:21:11;3.67;;;2.00;;
74267;SDS011;62638;51.362;12.472;2022-12-07T09:23:36;5.55;;;2.85;;
74267;SDS011;62638;51.362;12.472;2022-12-07T09:26:02;5.97;;;4.13;;
74267;SDS011;62638;51.362;12.472;2022-12-07T09:28:30;4.35;;;2.58;;
74267;SDS011;62638;51.362;12.472;2022-12-07T09:30:56;4.60;;;2.17;;
74267;SDS011;62638;51.362;12.472;2022-12-07T09:33:21;5.10;;;3.23;;
74267;SDS011;62638;51.362;12.472;2022-12-07T09:35:47;4.10;;;2.43;;
74267;SDS011;62638;51.362;12.472;2022-12-07T09:38:13;5.13;;;3.03;;
74267;SDS011;62638;51.362;12.472;2022-12-07T09:40:39;7.47;;;2.78;;
74267;SDS011;62638;51.362;12.472;2022-12-07T09:43:05;8.10;;;3.33;;
74267;SDS011;62638;51.362;12.472;2022-12-07T09:45:36;3.50;;;2.10;;
74267;SDS011;62638;51.362;12.472;2022-12-07T09:48:03;4.13;;;1.75;;
74267;SDS011;62638;51.362;12.472;2022-12-07T09:50:30;6.35;;;3.13;;
74267;SDS011;62638;51.362;12.472;2022-12-07T09:53:07;5.30;;;2.90;;
74267;SDS011;62638;51.362;12.472;2022-12-07T09:55:34;7.80;;;2.55;;
74267;SDS011;62638;51.362;12.472;2022-12-07T09:58:01;4.55;;;1.90;;
74267;SDS011;62638;51.362;12.472;2022-12-07T10:00:26;7.38;;;2.95;;
74267;SDS011;62638;51.362;12.472;2022-12-07T10:03:00;7.55;;;4.03;;
74267;SDS011;62638;51.362;12.472;2022-12-07T10:05:34;6.07;;;2.75;;
74267;SDS011;62638;51.362;12.472;2022-12-07T10:08:03;4.63;;;2.47;;
74267;SDS011;62638;51.362;12.472;2022-12-07T10:10:30;5.50;;;2.63;;
74267;SDS011;62638;51.362;12.472;2022-12-07T10:18:30;5.22;;;2.45;;
74267;SDS011;62638;51.362;12.472;2022-12-07T10:29:00;9.38;;;3.63;;
74267;SDS011;62638;51.362;12.472;2022-12-07T10:31:38;5.22;;;3.40;;
74267;SDS011;62638;51.362;12.472;2022-12-07T10:34:12;9.15;;;3.60;;
74267;SDS011;62638;51.362;12.472;2022-12-07T10:36:47;5.38;;;2.20;;
74267;SDS011;62638;51.362;12.472;2022-12-07T10:39:13;2.72;;;1.50;;
74267;SDS011;62638;51.362;12.472;2022-12-07T10:41:58;4.45;;;2.55;;
74267;SDS011;62638;51.362;12.472;2022-12-07T10:44:27;10.23;;;3.58;;
74267;SDS011;62638;51.362;12.472;2022-12-07T11:00:37;3.72;;;2.25;;
74267;SDS011;62638;51.362;12.472;2022-12-07T11:03:25;2.65;;;1.85;;
74267;SDS011;62638;51.362;12.472;2022-12-07T11:06:06;8.38;;;2.45;;
74267;SDS011;62638;51.362;12.472;2022-12-07T11:14:10;7.03;;;2.63;;
74267;SDS011;62638;51.362;12.472;2022-12-07T11:16:57;8.05;;;2.60;;
74267;SDS011;62638;51.362;12.472;2022-12-07T11:21:57;5.40;;;2.63;;
74267;SDS011;62638;51.362;12.472;2022-12-07T11:24:36;3.08;;;1.73;;
74267;SDS011;62638;51.362;12.472;2022-12-07T11:32:40;0.25;;;0.25;;
74267;SDS011;62638;51.362;12.472;2022-12-07T11:37:47;3.42;;;2.05;;
74267;SDS011;62638;51.362;12.472;2022-12-07T11:40:33;3.85;;;2.00;;
74267;SDS011;62638;51.362;12.472;2022-12-07T11:46:19;3.00;;;1.10;;
74267;SDS011;62638;51.362;12.472;2022-12-07T11:48:47;4.03;;;2.17;;
74267;SDS011;62638;51.362;12.472;2022-12-07T11:51:23;2.42;;;1.35;;
74267;SDS011;62638;51.362;12.472;2022-12-07T11:53:53;7.18;;;2.33;;
74267;SDS011;62638;51.362;12.472;2022-12-07T11:56:25;5.22;;;2.10;;
74267;SDS011;62638;51.362;12.472;2022-12-07T12:06:37;1.90;;;1.40;;
74267;SDS011;62638;51.362;12.472;2022-12-07T12:25:00;5.78;;;2.10;;
74267;SDS011;62638;51.362;12.472;2022-12-07T12:27:34;2.47;;;1.73;;
74267;SDS011;62638;51.362;12.472;2022-12-07T12:30:04;6.38;;;1.85;;
74267;SDS011;62638;51.362;12.472;2022-12-07T12:32:39;1.90;;;1.20;;
74267;SDS011;62638;51.362;12.472;2022-12-07T12:40:49;3.17;;;1.65;;
74267;SDS011;62638;51.362;12.472;2022-12-07T12:51:43;4.38;;;2.33;;
74267;SDS011;62638;51.362;12.472;2022-12-07T12:56:46;1.95;;;1.10;;
74267;SDS011;62638;51.362;12.472;2022-12-07T13:01:46;1.47;;;1.13;;
74267;SDS011;62638;51.362;12.472;2022-12-07T13:04:23;3.83;;;1.10;;
74267;SDS011;62638;51.362;12.472;2022-12-07T13:06:52;1.52;;;0.65;;
74267;SDS011;62638;51.362;12.472;2022-12-07T13:09:19;3.00;;;1.25;;
74267;SDS011;62638;51.362;12.472;2022-12-07T13:11:48;3.72;;;1.58;;
74267;SDS011;62638;51.362;12.472;2022-12-07T13:14:40;1.63;;;0.30;;
74267;SDS011;62638;51.362;12.472;2022-12-07T13:17:11;1.95;;;0.63;;
74267;SDS011;62638;51.362;12.472;2022-12-07T13:19:55;1.92;;;0.98;;
74267;SDS011;62638;51.362;12.472;2022-12-07T13:27:27;0.75;;;0.63;;
74267;SDS011;62638;51.362;12.472;2022-12-07T13:29:52;3.50;;;0.50;;
74267;SDS011;62638;51.362;12.472;2022-12-07T13:34:50;1.58;;;0.98;;
74267;SDS011;62638;51.362;12.472;2022-12-07T13:37:24;5.77;;;0.80;;
74267;SDS011;62638;51.362;12.472;2022-12-07T13:39:53;0.88;;;0.88;;
74267;SDS011;62638;51.362;12.472;2022-12-07T13:42:27;0.35;;;0.22;;
74267;SDS011;62638;51.362;12.472;2022-12-07T13:44:55;0.82;;;0.40;;
74267;SDS011;62638;51.362;12.472;2022-12-07T13:47:34;1.13;;;0.70;;
74267;SDS011;62638;51.362;12.472;2022-12-07T13:52:57;0.68;;;0.68;;
74267;SDS011;62638;51.362;12.472;2022-12-07T13:55:23;1.67;;;0.50;;
74267;SDS011;62638;51.362;12.472;2022-12-07T13:57:50;1.00;;;0.55;;
74267;SDS011;62638;51.362;12.472;2022-12-07T14:00:21;0.68;;;0.55;;
74267;SDS011;62638;51.362;12.472;2022-12-07T14:05:28;0.95;;;0.50;;
74267;SDS011;62638;51.362;12.472;2022-12-07T14:10:35;0.63;;;0.55;;
74267;SDS011;62638;51.362;12.472;2022-12-07T14:16:01;0.70;;;0.60;;
74267;SDS011;62638;51.362;12.472;2022-12-07T14:18:30;0.32;;;0.17;;
74267;SDS011;62638;51.362;12.472;2022-12-07T14:21:18;2.13;;;0.70;;
74267;SDS011;62638;51.362;12.472;2022-12-07T14:26:48;0.80;;;0.50;;
74267;SDS011;62638;51.362;12.472;2022-12-07T14:29:22;4.25;;;1.17;;
74267;SDS011;62638;51.362;12.472;2022-12-07T14:31:56;2.17;;;0.88;;
74267;SDS011;62638;51.362;12.472;2022-12-07T14:34:40;2.67;;;1.00;;
74267;SDS011;62638;51.362;12.472;2022-12-07T14:37:07;1.23;;;0.82;;
74267;SDS011;62638;51.362;12.472;2022-12-07T14:39:34;2.10;;;0.82;;
74267;SDS011;62638;51.362;12.472;2022-12-07T14:41:59;1.93;;;0.73;;
74267;SDS011;62638;51.362;12.472;2022-12-07T14:44:25;1.70;;;0.52;;
74267;SDS011;62638;51.362;12.472;2022-12-07T14:46:50;0.70;;;0.50;;
74267;SDS011;62638;51.362;12.472;2022-12-07T14:49:16;1.50;;;0.32;;
74267;SDS011;62638;51.362;12.472;2022-12-07T14:51:43;4.30;;;0.50;;
74267;SDS011;62638;51.362;12.472;2022-12-07T14:54:13;0.60;;;0.60;;
74267;SDS011;62638;51.362;12.472;2022-12-07T14:56:43;1.30;;;0.22;;
74267;SDS011;62638;51.362;12.472;2022-12-07T14:59:09;1.00;;;0.90;;
74267;SDS011;62638;51.362;12.472;2022-12-07T15:01:35;0.73;;;0.65;;
74267;SDS011;62638;51.362;12.472;2022-12-07T15:04:01;1.00;;;0.70;;
74267;SDS011;62638;51.362;12.472;2022-12-07T15:06:26;1.50;;;0.40;;
74267;SDS011;62638;51.362;12.472;2022-12-07T15:08:52;1.02;;;0.73;;
74267;SDS011;62638;51.362;12.472;2022-12-07T15:11:18;1.90;;;0.98;;
74267;SDS011;62638;51.362;12.472;2022-12-07T15:13:43;1.02;;;0.63;;
74267;SDS011;62638;51.362;12.472;2022-12-07T15:16:27;0.30;;;0.13;;
74267;SDS011;62638;51.362;12.472;2022-12-07T15:18:53;0.90;;;0.65;;
74267;SDS011;62638;51.362;12.472;2022-12-07T15:21:18;0.47;;;0.40;;
74267;SDS011;62638;51.362;12.472;2022-12-07T15:23:43;4.07;;;0.95;;
74267;SDS011;62638;51.362;12.472;2022-12-07T15:26:11;2.88;;;1.65;;
74267;SDS011;62638;51.362;12.472;2022-12-07T15:28:36;3.15;;;1.08;;
74267;SDS011;62638;51.362;12.472;2022-12-07T15:31:01;0.20;;;0.20;;
74267;SDS011;62638;51.362;12.472;2022-12-07T15:33:27;0.52;;;0.40;;
74267;SDS011;62638;51.362;12.472;2022-12-07T15:35:52;1.23;;;1.00;;
74267;SDS011;62638;51.362;12.472;2022-12-07T15:38:17;1.40;;;0.70;;
74267;SDS011;62638;51.362;12.472;2022-12-07T15:40:46;1.73;;;0.60;;
74267;SDS011;62638;51.362;12.472;2022-12-07T15:43:11;0.20;;;0.20;;
74267;SDS011;62638;51.362;12.472;2022-12-07T15:45:55;0.43;;;0.30;;
74267;SDS011;62638;51.362;12.472;2022-12-07T15:48:21;10.70;;;1.25;;
74267;SDS011;62638;51.362;12.472;2022-12-07T15:50:46;0.45;;;0.30;;
74267;SDS011;62638;51.362;12.472;2022-12-07T15:53:11;0.50;;;0.50;;
74267;SDS011;62638;51.362;12.472;2022-12-07T15:55:40;0.47;;;0.43;;
74267;SDS011;62638;51.362;12.472;2022-12-07T15:58:05;0.43;;;0.38;;
74267;SDS011;62638;51.362;12.472;2022-12-07T16:00:31;3.90;;;0.60;;
74267;SDS011;62638;51.362;12.472;2022-12-07T16:02:56;0.50;;;0.40;;
74267;SDS011;62638;51.362;12.472;2022-12-07T16:05:22;0.30;;;0.30;;
74267;SDS011;62638;51.362;12.472;2022-12-07T16:07:47;0.45;;;0.25;;
74267;SDS011;62638;51.362;12.472;2022-12-07T16:10:12;1.05;;;0.57;;
74267;SDS011;62638;51.362;12.472;2022-12-07T16:12:38;0.88;;;0.77;;
74267;SDS011;62638;51.362;12.472;2022-12-07T16:15:03;1.37;;;0.53;;
74267;SDS011;62638;51.362;12.472;2022-12-07T16:17:29;2.28;;;0.93;;
74267;SDS011;62638;51.362;12.472;2022-12-07T16:19:54;0.80;;;0.60;;
74267;SDS011;62638;51.362;12.472;2022-12-07T16:22:20;2.00;;;0.87;;
74267;SDS011;62638;51.362;12.472;2022-12-07T16:24:45;1.67;;;0.67;;
74267;SDS011;62638;51.362;12.472;2022-12-07T16:27:10;3.47;;;0.55;;
74267;SDS011;62638;51.362;12.472;2022-12-07T16:29:36;1.73;;;1.45;;
74267;SDS011;62638;51.362;12.472;2022-12-07T16:32:01;0.55;;;0.50;;
74267;SDS011;62638;51.362;12.472;2022-12-07T16:34:27;7.30;;;0.73;;
74267;SDS011;62638;51.362;12.472;2022-12-07T16:36:52;2.50;;;0.70;;
74267;SDS011;62638;51.362;12.472;2022-12-07T16:39:17;0.40;;;0.30;;
74267;SDS011;62638;51.362;12.472;2022-12-07T16:41:43;1.25;;;0.75;;
74267;SDS011;62638;51.362;12.472;2022-12-07T16:44:10;2.92;;;0.95;;
74267;SDS011;62638;51.362;12.472;2022-12-07T16:46:37;1.25;;;0.60;;
74267;SDS011;62638;51.362;12.472;2022-12-07T16:49:03;2.28;;;0.70;;
74267;SDS011;62638;51.362;12.472;2022-12-07T16:51:29;0.85;;;0.77;;
74267;SDS011;62638;51.362;12.472;2022-12-07T16:53:54;2.85;;;1.13;;
74267;SDS011;62638;51.362;12.472;2022-12-07T16:56:20;1.60;;;0.98;;
74267;SDS011;62638;51.362;12.472;2022-12-07T16:58:46;1.58;;;0.93;;
74267;SDS011;62638;51.362;12.472;2022-12-07T17:01:22;1.15;;;1.00;;